Time;durP1;ratioP1;P1;durP2;ratioP2;P2;SDS_P1;SDS_P2;PMS_P1;PMS_P2;Temp;Humidity;BMP_temperature;BMP_pressure;BME280_temperature;BME280_humidity;BME280_pressure;Samples;Min_cycle;Max_cycle;Signal;HPM_P1;HPM_P2
2022/04/05 00:00:41;;;;;;;21.90;18.43;;;8.70;99.90;;;;;;2606960;54;20182;-76
2022/04/05 00:03:06;;;;;;;22.53;16.27;;;8.70;99.90;;;;;;2605632;39;20722;-76
2022/04/05 00:05:33;;;;;;;25.67;18.83;;;8.80;99.90;;;;;;2610880;54;20156;-76
2022/04/05 00:07:59;;;;;;;26.60;20.90;;;8.80;99.90;;;;;;2609386;54;20186;-76
2022/04/05 00:10:26;;;;;;;20.93;15.47;;;8.80;99.90;;;;;;2608151;54;20406;-76
2022/04/05 00:12:52;;;;;;;25.67;19.83;;;8.80;99.90;;;;;;2604560;54;20196;-76
2022/04/05 00:15:17;;;;;;;26.27;19.80;;;8.80;99.90;;;;;;2607057;54;20411;-75
2022/04/05 00:17:44;;;;;;;26.83;20.30;;;8.90;99.90;;;;;;2608559;54;20181;-75
2022/04/05 00:20:09;;;;;;;18.90;16.00;;;8.90;99.90;;;;;;2605941;54;20404;-75
2022/04/05 00:22:35;;;;;;;23.83;17.40;;;8.90;99.90;;;;;;2607565;54;20401;-76
2022/04/05 00:25:03;;;;;;;23.87;18.67;;;9.00;99.90;;;;;;2608358;54;20464;-75
2022/04/05 00:27:28;;;;;;;19.50;14.80;;;8.90;99.90;;;;;;2608442;47;20419;-75
2022/04/05 00:29:55;;;;;;;17.97;15.27;;;9.00;99.90;;;;;;2607297;47;20465;-75
2022/04/05 00:32:21;;;;;;;23.77;18.37;;;9.00;99.90;;;;;;2607411;39;20806;-76
2022/04/05 00:34:47;;;;;;;13.70;12.27;;;9.00;99.90;;;;;;2605763;54;20394;-76
2022/04/05 00:37:12;;;;;;;19.60;14.43;;;9.00;99.90;;;;;;2607893;54;21274;-75
2022/04/05 00:39:38;;;;;;;15.93;13.40;;;9.00;99.90;;;;;;2607180;54;20415;-75
2022/04/05 00:42:04;;;;;;;17.03;13.87;;;9.00;99.90;;;;;;2608337;54;20200;-75
2022/04/05 00:44:30;;;;;;;15.50;12.80;;;9.00;99.90;;;;;;2608715;54;20163;-75
2022/04/05 00:47:02;;;;;;;12.77;9.00;;;9.00;99.90;;;;;;2609189;47;20913;-76
2022/04/05 00:49:32;;;;;;;17.67;14.10;;;9.10;99.90;;;;;;2608913;47;20391;-75
2022/04/05 00:51:59;;;;;;;13.87;11.83;;;9.10;99.90;;;;;;2607409;47;21287;-75
2022/04/05 00:54:25;;;;;;;18.23;11.80;;;9.10;99.90;;;;;;2609286;54;20543;-76
2022/04/05 00:56:55;;;;;;;16.20;12.77;;;9.10;99.90;;;;;;2607377;47;20986;-75
2022/04/05 00:59:23;;;;;;;14.40;11.13;;;9.10;99.90;;;;;;2606749;47;20391;-74
2022/04/05 01:01:51;;;;;;;14.43;12.67;;;9.10;99.90;;;;;;2609629;54;21006;-75
2022/04/05 01:04:17;;;;;;;16.77;13.50;;;9.10;99.90;;;;;;2608900;39;20544;-74
2022/04/05 01:06:48;;;;;;;14.70;11.50;;;9.10;99.90;;;;;;2607463;54;20556;-75
2022/04/05 01:09:14;;;;;;;12.60;10.33;;;9.20;99.90;;;;;;2606513;54;21020;-75
2022/04/05 01:11:40;;;;;;;14.43;12.00;;;9.20;99.90;;;;;;2605817;47;20431;-75
2022/04/05 01:14:06;;;;;;;13.00;9.97;;;9.10;99.90;;;;;;2607353;54;20400;-76
2022/04/05 01:16:33;;;;;;;13.13;10.07;;;9.20;99.90;;;;;;2606429;47;20459;-75
2022/04/05 01:18:59;;;;;;;12.53;9.23;;;9.20;99.90;;;;;;2610045;54;20447;-75
2022/04/05 01:21:25;;;;;;;12.70;9.57;;;9.20;99.90;;;;;;2609310;54;20395;-75
2022/04/05 01:24:11;;;;;;;13.77;10.87;;;9.20;99.90;;;;;;2604332;54;20416;-75
2022/04/05 01:26:42;;;;;;;13.00;10.13;;;9.20;99.90;;;;;;2606311;47;20168;-74
2022/04/05 01:29:08;;;;;;;12.00;8.87;;;9.30;99.90;;;;;;2605181;54;21004;-75
2022/04/05 01:31:46;;;;;;;15.40;11.57;;;9.20;99.90;;;;;;2605763;54;20423;-75
2022/04/05 01:34:14;;;;;;;13.97;8.90;;;9.30;99.90;;;;;;2605754;54;20408;-75
2022/04/05 01:36:52;;;;;;;17.00;11.50;;;9.20;99.90;;;;;;2611769;47;21013;-75
2022/04/05 01:39:20;;;;;;;14.30;10.00;;;9.30;99.90;;;;;;2609985;49;20404;-75
2022/04/05 01:41:50;;;;;;;15.30;9.73;;;9.30;99.90;;;;;;2608173;39;20811;-75
2022/04/05 01:44:16;;;;;;;13.67;9.40;;;9.30;99.90;;;;;;2606195;54;20478;-75
2022/04/05 01:46:42;;;;;;;15.60;11.30;;;9.40;99.90;;;;;;2607958;54;20414;-75
2022/04/05 01:49:10;;;;;;;14.33;9.80;;;9.40;99.90;;;;;;2607384;54;20425;-75
2022/04/05 01:51:37;;;;;;;15.57;10.07;;;9.40;99.90;;;;;;2608304;54;20421;-75
2022/04/05 01:54:10;;;;;;;13.27;10.70;;;9.40;99.90;;;;;;2611648;39;20882;-75
2022/04/05 01:56:44;;;;;;;12.73;10.00;;;9.40;99.90;;;;;;2608991;54;20431;-75
2022/04/05 01:59:16;;;;;;;10.97;9.67;;;9.20;99.90;;;;;;2606712;54;20400;-76
2022/04/05 02:01:42;;;;;;;12.17;9.07;;;9.10;99.90;;;;;;2607769;54;20445;-75
2022/04/05 02:04:09;;;;;;;13.07;8.60;;;9.00;99.90;;;;;;2608615;54;20422;-75
2022/04/05 02:06:41;;;;;;;10.57;7.70;;;8.90;99.90;;;;;;2607674;54;20420;-75
2022/04/05 02:09:07;;;;;;;11.07;7.97;;;8.90;99.90;;;;;;2608611;54;20416;-75
2022/04/05 02:11:34;;;;;;;7.93;6.77;;;8.80;99.90;;;;;;2608016;54;20448;-75
2022/04/05 02:14:08;;;;;;;8.00;6.37;;;8.80;99.90;;;;;;2608313;51;20425;-74
2022/04/05 02:16:34;;;;;;;10.23;6.70;;;8.70;99.90;;;;;;2611631;54;20409;-74
2022/04/05 02:19:02;;;;;;;6.87;5.60;;;8.70;99.90;;;;;;2609186;46;20407;-75
2022/04/05 02:21:28;;;;;;;9.73;6.87;;;8.80;99.90;;;;;;2608220;54;20397;-74
2022/04/05 02:23:54;;;;;;;9.13;6.30;;;8.70;99.90;;;;;;2606965;47;20413;-75
2022/04/05 02:26:27;;;;;;;11.07;6.53;;;8.70;99.90;;;;;;2608569;46;20417;-75
2022/04/05 02:28:54;;;;;;;7.10;6.37;;;8.70;99.90;;;;;;2608931;47;20471;-75
2022/04/05 02:31:23;;;;;;;9.87;6.20;;;8.70;99.90;;;;;;2609347;47;20941;-74
2022/04/05 02:33:51;;;;;;;8.80;6.40;;;8.80;99.90;;;;;;2608020;54;20420;-75
2022/04/05 02:36:29;;;;;;;7.67;6.73;;;8.80;99.90;;;;;;2607576;54;20403;-74
2022/04/05 02:38:57;;;;;;;6.70;5.80;;;8.70;99.90;;;;;;2608272;54;20429;-75
2022/04/05 02:41:25;;;;;;;5.63;5.03;;;8.70;99.90;;;;;;2606742;54;20424;-76
2022/04/05 02:43:51;;;;;;;4.23;3.83;;;8.70;99.90;;;;;;2606898;39;20805;-74
2022/04/05 02:46:20;;;;;;;4.00;3.70;;;8.50;99.90;;;;;;2607697;47;20618;-75
2022/04/05 02:48:48;;;;;;;4.47;3.67;;;8.60;99.90;;;;;;2609129;54;20426;-75
2022/04/05 02:51:24;;;;;;;3.57;3.30;;;8.60;99.90;;;;;;2611204;54;20507;-75
2022/04/05 02:53:52;;;;;;;3.60;3.30;;;8.70;99.90;;;;;;2607537;54;20482;-75
2022/04/05 02:56:18;;;;;;;3.30;3.00;;;8.80;99.90;;;;;;2605290;54;20445;-75
2022/04/05 02:58:47;;;;;;;3.53;3.10;;;8.80;99.90;;;;;;2606044;54;20432;-75
2022/04/05 03:01:16;;;;;;;3.97;3.60;;;8.80;99.90;;;;;;2605983;54;20422;-75
2022/04/05 03:03:43;;;;;;;3.87;3.57;;;8.80;99.90;;;;;;2606147;54;20541;-75
2022/04/05 03:06:10;;;;;;;4.60;4.20;;;8.80;99.90;;;;;;2606513;47;20422;-75
2022/04/05 03:08:38;;;;;;;6.00;3.10;;;8.70;99.90;;;;;;2606690;31;20844;-75
2022/04/05 03:11:07;;;;;;;2.90;2.70;;;8.60;99.90;;;;;;2608966;54;20403;-75
2022/04/05 03:13:33;;;;;;;4.13;3.57;;;8.70;99.90;;;;;;2610012;31;20973;-75
2022/04/05 03:16:00;;;;;;;3.70;3.40;;;8.60;99.90;;;;;;2606983;51;20471;-75
2022/04/05 03:18:27;;;;;;;4.30;3.90;;;8.60;99.90;;;;;;2606793;54;20424;-75
2022/04/05 03:20:53;;;;;;;4.40;3.60;;;8.70;99.90;;;;;;2607204;47;20421;-75
2022/04/05 03:23:21;;;;;;;6.17;5.57;;;8.70;99.90;;;;;;2606191;54;21017;-75
2022/04/05 03:25:50;;;;;;;6.23;5.63;;;8.80;99.90;;;;;;2607109;54;20422;-75
2022/04/05 03:28:20;;;;;;;6.87;6.00;;;8.70;99.90;;;;;;2608954;47;20427;-75
2022/04/05 03:30:48;;;;;;;8.17;7.20;;;8.80;99.90;;;;;;2609706;31;20852;-74
2022/04/05 03:33:16;;;;;;;7.63;6.70;;;8.90;99.90;;;;;;2607127;54;20420;-75
2022/04/05 03:35:42;;;;;;;10.30;8.90;;;8.90;99.90;;;;;;2605801;39;20715;-75
2022/04/05 03:38:09;;;;;;;9.93;8.47;;;8.90;99.90;;;;;;2607848;54;20406;-75
2022/04/05 03:40:35;;;;;;;8.83;7.93;;;8.90;99.90;;;;;;2608138;39;21026;-75
2022/04/05 03:43:04;;;;;;;10.40;9.40;;;8.70;99.90;;;;;;2608521;47;20403;-74
2022/04/05 03:45:30;;;;;;;12.70;9.23;;;8.70;99.90;;;;;;2608838;39;20957;-74
2022/04/05 03:47:57;;;;;;;10.67;9.67;;;8.70;99.90;;;;;;2607448;54;20458;-75
2022/04/05 03:50:23;;;;;;;9.93;9.00;;;8.70;99.90;;;;;;2606936;47;20486;-75
2022/04/05 03:52:49;;;;;;;10.47;9.33;;;8.60;99.90;;;;;;2609068;47;21375;-74
2022/04/05 03:55:23;;;;;;;12.87;10.50;;;8.60;99.90;;;;;;2608578;39;20825;-74
2022/04/05 03:57:54;;;;;;;11.87;10.50;;;8.50;99.90;;;;;;2606073;54;20471;-75
2022/04/05 04:00:21;;;;;;;12.57;10.20;;;8.60;99.90;;;;;;2606785;54;21044;-75
2022/04/05 04:02:59;;;;;;;15.90;11.10;;;8.60;99.90;;;;;;2607911;54;20564;-74
2022/04/05 04:05:25;;;;;;;18.77;10.50;;;8.60;99.90;;;;;;2610561;54;20588;-76
2022/04/05 04:07:53;;;;;;;11.67;10.47;;;8.70;99.90;;;;;;2606581;54;20251;-74
2022/04/05 04:10:21;;;;;;;15.83;11.07;;;8.70;99.90;;;;;;2605929;47;20491;-75
2022/04/05 04:12:48;;;;;;;11.33;10.17;;;8.70;99.90;;;;;;2606886;54;20467;-74
2022/04/05 04:15:16;;;;;;;11.47;10.03;;;8.50;99.90;;;;;;2606900;54;20432;-74
2022/04/05 04:17:42;;;;;;;16.33;11.77;;;8.50;99.90;;;;;;2608856;47;20416;-74
2022/04/05 04:20:09;;;;;;;16.00;10.83;;;8.50;99.90;;;;;;2609296;54;20442;-74
2022/04/05 04:22:37;;;;;;;11.60;9.23;;;8.50;99.90;;;;;;2607557;47;20520;-75
2022/04/05 04:25:04;;;;;;;11.03;8.80;;;8.50;99.90;;;;;;2607593;54;20495;-75
2022/04/05 04:27:31;;;;;;;8.93;7.27;;;8.60;99.90;;;;;;2607217;51;20524;-75
2022/04/05 04:29:57;;;;;;;12.47;8.17;;;8.60;99.90;;;;;;2606097;47;20411;-75
2022/04/05 04:32:22;;;;;;;9.17;8.27;;;8.50;99.90;;;;;;2607501;39;20540;-75
2022/04/05 04:34:48;;;;;;;8.57;7.67;;;8.60;99.90;;;;;;2605890;54;20156;-75
2022/04/05 04:37:14;;;;;;;12.03;8.00;;;8.50;99.90;;;;;;2605995;54;20164;-76
2022/04/05 04:39:40;;;;;;;9.53;7.90;;;8.50;99.90;;;;;;2606764;54;21456;-75
2022/04/05 04:42:06;;;;;;;8.67;7.17;;;8.50;99.90;;;;;;2608072;47;21022;-76
2022/04/05 04:44:32;;;;;;;10.03;6.93;;;8.40;99.90;;;;;;2610592;54;20412;-75
2022/04/05 04:46:58;;;;;;;9.60;7.13;;;8.40;99.90;;;;;;2609483;54;20929;-75
2022/04/05 04:49:25;;;;;;;7.77;6.37;;;8.40;99.90;;;;;;2607607;47;20202;-74
2022/04/05 04:51:51;;;;;;;6.30;5.70;;;8.40;99.90;;;;;;2605825;47;20442;-74
2022/04/05 04:54:17;;;;;;;6.50;5.00;;;8.50;99.90;;;;;;2608889;47;20411;-74
2022/04/05 04:56:42;;;;;;;6.20;5.57;;;8.40;99.90;;;;;;2608755;54;20277;-74
2022/04/05 04:59:08;;;;;;;6.23;5.40;;;8.40;99.90;;;;;;2606540;54;20689;-74
2022/04/05 05:01:34;;;;;;;6.90;6.03;;;8.40;99.90;;;;;;2607472;47;20243;-75
2022/04/05 05:04:01;;;;;;;6.43;4.87;;;8.50;99.90;;;;;;2610521;39;20593;-75
2022/04/05 05:06:28;;;;;;;6.20;5.30;;;8.50;99.90;;;;;;2609154;47;20481;-75
2022/04/05 05:08:53;;;;;;;5.50;4.80;;;8.50;99.90;;;;;;2606869;54;20440;-74
2022/04/05 05:11:20;;;;;;;5.33;4.10;;;8.50;99.90;;;;;;2607770;50;20167;-75
2022/04/05 05:13:45;;;;;;;6.83;4.80;;;8.50;99.90;;;;;;2606789;54;20155;-75
2022/04/05 05:16:11;;;;;;;4.40;4.00;;;8.50;99.90;;;;;;2608391;54;20404;-76
2022/04/05 05:18:37;;;;;;;5.93;4.43;;;8.50;99.90;;;;;;2608791;54;20263;-75
2022/04/05 05:21:03;;;;;;;5.07;4.27;;;8.50;99.90;;;;;;2609449;54;20161;-76
2022/04/05 05:23:29;;;;;;;6.40;4.00;;;8.50;99.90;;;;;;2606452;47;20968;-75
2022/04/05 05:25:55;;;;;;;5.07;3.60;;;8.50;99.90;;;;;;2606765;54;20451;-74
2022/04/05 05:28:21;;;;;;;4.40;3.40;;;8.50;99.90;;;;;;2607798;54;20426;-74
2022/04/05 05:30:47;;;;;;;6.40;4.37;;;8.40;99.90;;;;;;2611211;54;20191;-74
2022/04/05 05:33:13;;;;;;;4.50;3.87;;;8.40;99.90;;;;;;2609420;54;21079;-75
2022/04/05 05:35:38;;;;;;;6.70;4.30;;;8.60;99.90;;;;;;2610119;47;20164;-76
2022/04/05 05:38:04;;;;;;;6.40;4.93;;;8.70;99.90;;;;;;2611937;47;20193;-75
2022/04/05 05:40:30;;;;;;;12.10;5.73;;;8.60;99.90;;;;;;2609870;54;20454;-74
2022/04/05 05:43:03;;;;;;;6.77;5.00;;;8.60;99.90;;;;;;2609816;54;20515;-75
2022/04/05 05:45:35;;;;;;;7.50;5.90;;;8.70;99.90;;;;;;2609824;54;20529;-75
2022/04/05 05:48:05;;;;;;;9.10;5.70;;;8.90;99.90;;;;;;2609917;54;20850;-75
2022/04/05 05:50:31;;;;;;;11.97;6.57;;;8.70;99.90;;;;;;2611096;54;20430;-75
2022/04/05 05:52:59;;;;;;;10.90;6.47;;;8.70;99.90;;;;;;2611442;47;20462;-75
2022/04/05 05:55:25;;;;;;;12.00;7.03;;;8.80;99.90;;;;;;2609219;54;20504;-75
2022/04/05 05:57:51;;;;;;;7.83;5.30;;;8.80;99.90;;;;;;2609800;54;20413;-74
2022/04/05 06:00:22;;;;;;;9.10;6.10;;;8.80;99.90;;;;;;2606079;54;21081;-77
2022/04/05 06:02:55;;;;;;;8.77;6.27;;;8.90;99.90;;;;;;2609185;54;20408;-74
2022/04/05 06:05:22;;;;;;;11.90;7.57;;;9.00;99.90;;;;;;2610665;54;20428;-74
2022/04/05 06:07:48;;;;;;;10.20;8.10;;;9.00;99.90;;;;;;2609261;54;20410;-74
2022/04/05 06:10:15;;;;;;;8.20;6.63;;;9.00;99.90;;;;;;2608318;39;20583;-75
2022/04/05 06:12:43;;;;;;;12.30;7.37;;;9.10;99.90;;;;;;2601910;54;20390;-75
2022/04/05 06:15:11;;;;;;;10.30;7.50;;;9.20;99.90;;;;;;2603180;54;20429;-74
2022/04/05 06:17:45;;;;;;;9.10;7.00;;;9.10;99.90;;;;;;2605002;54;20467;-74
2022/04/05 06:20:13;;;;;;;10.17;7.83;;;9.10;99.90;;;;;;2602642;54;20429;-75
2022/04/05 06:22:49;;;;;;;10.83;7.43;;;9.00;99.90;;;;;;2604806;54;20415;-75
2022/04/05 06:25:24;;;;;;;25.73;8.67;;;8.90;99.90;;;;;;2609433;50;20541;-75
2022/04/05 06:27:50;;;;;;;12.23;8.33;;;8.90;99.90;;;;;;2607293;54;20425;-76
2022/04/05 06:30:17;;;;;;;11.37;9.10;;;9.00;99.90;;;;;;2602920;47;20409;-76
2022/04/05 06:32:43;;;;;;;11.80;7.23;;;9.00;99.90;;;;;;2605259;54;20428;-76
2022/04/05 06:35:11;;;;;;;13.50;7.87;;;8.90;99.90;;;;;;2607054;54;21069;-76
2022/04/05 06:37:37;;;;;;;11.80;8.90;;;9.00;99.90;;;;;;2607814;46;20494;-76
2022/04/05 06:40:05;;;;;;;12.03;8.03;;;9.00;99.90;;;;;;2606956;54;20426;-74
2022/04/05 06:42:32;;;;;;;11.10;8.67;;;9.10;99.90;;;;;;2609567;54;20429;-74
2022/04/05 06:44:57;;;;;;;13.93;9.70;;;9.40;99.90;;;;;;2610306;54;20555;-75
2022/04/05 06:47:24;;;;;;;14.90;8.77;;;9.20;99.90;;;;;;2607366;47;20408;-75
2022/04/05 06:49:50;;;;;;;10.83;8.70;;;9.40;99.90;;;;;;2607480;54;20169;-75
2022/04/05 06:52:16;;;;;;;12.90;10.00;;;9.40;99.90;;;;;;2610521;54;21092;-75
2022/04/05 06:54:42;;;;;;;18.90;12.73;;;9.40;99.90;;;;;;2609143;47;20175;-75
2022/04/05 06:57:09;;;;;;;17.20;12.03;;;9.40;99.90;;;;;;2610221;54;20394;-75
2022/04/05 06:59:36;;;;;;;20.83;11.80;;;9.40;99.90;;;;;;2608216;31;20871;-74
2022/04/05 07:02:02;;;;;;;20.20;14.63;;;9.40;99.90;;;;;;2611369;54;20524;-75
2022/04/05 07:04:29;;;;;;;24.23;15.40;;;9.50;99.90;;;;;;2610364;54;20402;-75
2022/04/05 07:06:55;;;;;;;21.30;16.20;;;9.60;99.90;;;;;;2605741;54;20458;-75
2022/04/05 07:09:22;;;;;;;25.50;16.40;;;9.60;99.90;;;;;;2607514;54;20543;-75
2022/04/05 07:11:48;;;;;;;30.27;18.80;;;9.70;99.90;;;;;;2610798;54;20496;-75
2022/04/05 07:14:14;;;;;;;25.50;16.53;;;9.80;99.90;;;;;;2609635;54;20417;-75
2022/04/05 07:16:40;;;;;;;25.27;17.57;;;9.80;99.90;;;;;;2610016;54;20512;-75
2022/04/05 07:19:06;;;;;;;22.60;16.07;;;9.90;99.90;;;;;;2610673;39;20636;-75
2022/04/05 07:21:31;;;;;;;27.70;18.80;;;10.00;99.90;;;;;;2609689;54;20202;-75
2022/04/05 07:23:57;;;;;;;28.00;18.20;;;10.00;99.90;;;;;;2606495;47;20701;-75
2022/04/05 07:26:23;;;;;;;26.00;17.87;;;10.10;99.90;;;;;;2608540;54;20352;-75
2022/04/05 07:28:49;;;;;;;19.23;13.50;;;10.10;99.90;;;;;;2606699;54;20170;-75
2022/04/05 07:31:15;;;;;;;31.17;19.17;;;10.10;99.90;;;;;;2604608;54;20413;-75
2022/04/05 07:33:41;;;;;;;34.73;19.03;;;10.10;99.90;;;;;;2607267;54;20778;-75
2022/04/05 07:36:07;;;;;;;29.37;19.23;;;10.20;99.90;;;;;;2626088;36;21001;-75
2022/04/05 07:38:32;;;;;;;34.17;22.60;;;10.20;99.90;;;;;;2610205;46;20463;-75
2022/04/05 07:40:58;;;;;;;31.17;21.73;;;10.20;99.90;;;;;;2607057;39;20643;-75
2022/04/05 07:43:27;;;;;;;32.40;22.73;;;10.40;99.90;;;;;;2607046;39;20635;-75
2022/04/05 07:45:54;;;;;;;30.37;19.20;;;10.30;99.90;;;;;;2609080;54;20679;-75
2022/04/05 07:48:21;;;;;;;27.57;20.47;;;10.30;99.90;;;;;;2607339;54;20421;-76
2022/04/05 07:50:47;;;;;;;29.03;22.10;;;10.20;99.90;;;;;;2605984;54;20436;-74
2022/04/05 07:53:15;;;;;;;35.97;20.10;;;10.20;99.90;;;;;;2608355;54;20447;-74
2022/04/05 07:55:41;;;;;;;26.60;20.60;;;10.20;99.90;;;;;;2610761;46;20482;-74
2022/04/05 07:58:07;;;;;;;40.03;22.13;;;10.20;99.90;;;;;;2610046;39;22160;-74
2022/04/05 08:00:34;;;;;;;36.47;24.73;;;10.30;99.90;;;;;;2605270;54;20433;-74
2022/04/05 08:02:59;;;;;;;32.80;21.37;;;10.20;99.90;;;;;;2607384;54;20223;-75
2022/04/05 08:05:27;;;;;;;33.40;24.43;;;10.20;99.90;;;;;;2606076;54;20436;-75
2022/04/05 08:07:54;;;;;;;33.50;21.60;;;10.30;99.90;;;;;;2608494;39;20575;-74
2022/04/05 08:10:20;;;;;;;34.30;23.10;;;10.30;99.90;;;;;;2609994;54;20428;-74
2022/04/05 08:12:48;;;;;;;31.57;22.03;;;10.40;99.90;;;;;;2609086;54;20438;-74
2022/04/05 08:15:20;;;;;;;33.33;22.37;;;10.30;99.90;;;;;;2609299;47;20939;-74
2022/04/05 08:17:46;;;;;;;38.03;23.20;;;10.30;99.90;;;;;;2609813;54;21165;-74
2022/04/05 08:20:13;;;;;;;32.27;21.33;;;10.30;99.90;;;;;;2608606;54;20416;-75
2022/04/05 08:22:40;;;;;;;32.33;20.33;;;10.30;99.90;;;;;;2608659;54;20512;-73
2022/04/05 08:25:07;;;;;;;30.37;21.33;;;10.30;99.90;;;;;;2610992;54;20456;-75
2022/04/05 08:27:33;;;;;;;27.43;20.03;;;10.40;99.90;;;;;;2610744;54;20413;-75
2022/04/05 08:30:00;;;;;;;27.33;19.50;;;10.30;99.90;;;;;;2609365;54;20869;-74
2022/04/05 08:32:27;;;;;;;25.80;19.37;;;10.30;99.90;;;;;;2609783;47;20546;-75
2022/04/05 08:34:53;;;;;;;27.87;19.93;;;10.40;99.90;;;;;;2609496;54;20458;-74
2022/04/05 08:37:18;;;;;;;27.47;19.17;;;10.50;99.90;;;;;;2609024;54;20479;-74
2022/04/05 08:39:44;;;;;;;23.07;18.30;;;10.50;99.90;;;;;;2608660;47;20978;-74
2022/04/05 08:42:12;;;;;;;30.97;22.33;;;10.50;99.90;;;;;;2610908;54;20238;-74
2022/04/05 08:44:38;;;;;;;35.33;22.90;;;10.50;99.90;;;;;;2611016;54;21326;-74
2022/04/05 08:47:04;;;;;;;31.70;21.60;;;10.50;99.90;;;;;;2609460;47;20491;-75
2022/04/05 08:49:31;;;;;;;29.90;20.40;;;10.50;99.90;;;;;;2609940;54;20543;-74
2022/04/05 08:51:57;;;;;;;31.93;21.10;;;10.60;99.90;;;;;;2609141;47;20453;-74
2022/04/05 08:54:23;;;;;;;28.50;20.47;;;10.60;99.90;;;;;;2611481;54;20539;-74
2022/04/05 08:56:50;;;;;;;28.17;20.67;;;10.60;99.90;;;;;;2610262;54;20454;-74
2022/04/05 08:59:18;;;;;;;30.90;22.37;;;10.60;99.90;;;;;;2610161;39;20817;-74
2022/04/05 09:01:44;;;;;;;33.63;22.77;;;10.60;99.90;;;;;;2609151;54;20463;-74
2022/04/05 09:04:10;;;;;;;29.23;21.13;;;10.70;99.90;;;;;;2609567;54;20410;-75
2022/04/05 09:06:36;;;;;;;26.47;18.90;;;10.70;99.90;;;;;;2608750;54;20154;-75
2022/04/05 09:09:10;;;;;;;28.77;21.33;;;10.80;99.90;;;;;;2610230;54;20154;-74
2022/04/05 09:11:42;;;;;;;29.73;21.20;;;10.80;99.90;;;;;;2609721;54;20419;-74
2022/04/05 09:14:08;;;;;;;36.73;22.03;;;10.80;99.90;;;;;;2610825;54;20955;-74
2022/04/05 09:16:35;;;;;;;33.53;19.30;;;10.80;99.90;;;;;;2609272;54;20423;-74
2022/04/05 09:19:21;;;;;;;29.40;21.00;;;10.90;99.90;;;;;;2608585;54;20408;-73
2022/04/05 09:21:58;;;;;;;30.23;21.00;;;10.90;99.90;;;;;;2608750;47;20964;-74
2022/04/05 09:24:34;;;;;;;32.87;21.17;;;11.00;99.90;;;;;;2608462;54;20390;-74
2022/04/05 09:27:00;;;;;;;27.80;19.43;;;11.00;99.90;;;;;;2608223;54;21090;-74
2022/04/05 09:29:43;;;;;;;27.77;19.93;;;11.10;99.90;;;;;;2610025;39;20862;-75
2022/04/05 09:32:37;;;;;;;32.67;21.70;;;11.10;99.90;;;;;;2608677;54;20390;-74
2022/04/05 09:35:05;;;;;;;34.43;23.03;;;11.10;99.90;;;;;;2609346;54;20544;-75
2022/04/05 09:37:36;;;;;;;29.93;20.83;;;11.00;99.90;;;;;;2611227;54;20397;-73
2022/04/05 09:40:22;;;;;;;24.70;19.40;;;11.00;99.90;;;;;;2610792;54;20463;-74
2022/04/05 09:43:05;;;;;;;25.20;19.17;;;11.00;99.90;;;;;;2610052;39;20781;-74
2022/04/05 09:45:51;;;;;;;29.70;20.10;;;11.00;99.90;;;;;;2609305;54;20538;-74
2022/04/05 09:48:20;;;;;;;30.67;21.60;;;11.00;99.90;;;;;;2608613;54;20398;-74
2022/04/05 09:51:07;;;;;;;27.77;19.87;;;11.10;99.90;;;;;;2609085;54;20417;-75
2022/04/05 09:53:38;;;;;;;24.67;18.00;;;11.10;99.90;;;;;;2609227;54;20525;-75
2022/04/05 09:56:13;;;;;;;26.80;19.93;;;11.00;99.90;;;;;;2609219;54;20458;-76
2022/04/05 09:58:56;;;;;;;28.57;21.00;;;11.00;99.90;;;;;;2609493;54;20594;-76
2022/04/05 10:01:25;;;;;;;21.47;15.20;;;10.90;99.90;;;;;;2609593;47;20519;-76
2022/04/05 10:04:13;;;;;;;27.40;19.90;;;10.80;99.90;;;;;;2609443;54;20431;-75
2022/04/05 10:06:46;;;;;;;25.17;19.53;;;11.00;99.90;;;;;;2610497;39;20752;-75
2022/04/05 10:09:18;;;;;;;23.43;16.73;;;11.00;99.90;;;;;;2610749;39;20826;-75
2022/04/05 10:11:46;;;;;;;26.27;17.07;;;11.00;99.90;;;;;;2612475;39;20966;-75
2022/04/05 10:14:14;;;;;;;23.37;17.80;;;11.10;99.90;;;;;;2610990;47;20431;-75
2022/04/05 10:16:40;;;;;;;26.80;19.70;;;11.10;99.90;;;;;;2611428;54;20996;-74
2022/04/05 10:19:12;;;;;;;24.20;17.37;;;11.20;99.90;;;;;;2609911;54;20467;-74
2022/04/05 10:21:43;;;;;;;24.43;19.63;;;11.30;99.90;;;;;;2611641;39;20834;-74
2022/04/05 10:24:12;;;;;;;22.87;16.67;;;11.30;99.90;;;;;;2611457;39;20850;-74
2022/04/05 10:26:40;;;;;;;30.10;19.60;;;11.30;99.90;;;;;;2611407;54;20924;-74
2022/04/05 10:29:10;;;;;;;24.60;19.30;;;11.30;99.90;;;;;;2609633;54;20474;-75
2022/04/05 10:31:42;;;;;;;24.37;18.50;;;11.30;99.90;;;;;;2608967;54;20448;-74
2022/04/05 10:34:28;;;;;;;19.90;16.63;;;11.30;99.90;;;;;;2610146;54;20410;-74
2022/04/05 10:37:16;;;;;;;23.13;14.90;;;11.30;99.90;;;;;;2610632;39;20536;-73
2022/04/05 10:39:43;;;;;;;19.67;13.77;;;11.20;99.90;;;;;;2610470;54;20432;-74
2022/04/05 10:42:08;;;;;;;20.10;16.07;;;11.20;99.90;;;;;;2610588;54;20412;-74
2022/04/05 10:44:38;;;;;;;17.70;15.53;;;11.30;99.90;;;;;;2611607;54;20931;-74
2022/04/05 10:47:09;;;;;;;17.60;14.83;;;11.50;99.90;;;;;;2612202;39;20541;-73
2022/04/05 10:49:43;;;;;;;18.10;13.07;;;11.50;99.90;;;;;;2612728;54;20518;-73
2022/04/05 10:52:23;;;;;;;15.77;12.97;;;11.50;99.90;;;;;;2609272;47;20526;-74
2022/04/05 10:55:04;;;;;;;17.67;14.40;;;11.50;99.90;;;;;;2611201;54;20400;-74
2022/04/05 10:57:34;;;;;;;19.17;13.57;;;11.50;99.90;;;;;;2610914;54;20479;-75
2022/04/05 11:00:07;;;;;;;15.23;12.17;;;11.60;99.90;;;;;;2610072;47;20501;-73
2022/04/05 11:02:51;;;;;;;15.50;11.87;;;11.70;99.90;;;;;;2611238;47;20415;-74
2022/04/05 11:05:19;;;;;;;15.70;12.70;;;11.80;99.90;;;;;;2611648;54;20423;-74
2022/04/05 11:07:54;;;;;;;17.33;13.50;;;11.80;99.90;;;;;;2611237;54;21134;-74
2022/04/05 11:10:30;;;;;;;15.63;11.47;;;11.60;99.90;;;;;;2611747;54;20948;-74
2022/04/05 11:13:19;;;;;;;19.37;11.30;;;11.60;99.90;;;;;;2611369;54;20403;-75
2022/04/05 11:15:45;;;;;;;12.90;10.97;;;11.50;99.90;;;;;;2609514;39;20787;-74
2022/04/05 11:18:12;;;;;;;10.97;9.87;;;11.40;99.90;;;;;;2610769;54;20407;-74
2022/04/05 11:20:44;;;;;;;12.57;10.00;;;11.40;99.90;;;;;;2610425;54;20718;-76
2022/04/05 11:23:14;;;;;;;12.43;9.93;;;11.40;99.90;;;;;;2610656;54;20418;-75
2022/04/05 11:25:42;;;;;;;11.33;9.37;;;11.40;99.90;;;;;;2611214;54;20420;-75
2022/04/05 11:28:10;;;;;;;10.60;9.30;;;11.40;99.90;;;;;;2610617;54;20445;-75
2022/04/05 11:30:39;;;;;;;11.67;10.47;;;11.30;99.90;;;;;;2610844;54;20416;-76
2022/04/05 11:33:33;;;;;;;13.43;11.20;;;11.20;99.90;;;;;;2612027;54;20512;-74
2022/04/05 11:36:00;;;;;;;11.00;9.80;;;11.20;99.90;;;;;;2611454;39;21005;-75
2022/04/05 11:38:27;;;;;;;12.10;10.20;;;11.20;99.90;;;;;;2610974;39;20950;-75
2022/04/05 11:40:58;;;;;;;11.00;8.97;;;11.20;99.90;;;;;;2611058;54;20414;-76
2022/04/05 11:43:30;;;;;;;12.80;11.00;;;11.20;99.90;;;;;;2610706;46;20438;-74
2022/04/05 11:46:19;;;;;;;14.70;12.03;;;11.30;99.90;;;;;;2610052;54;20432;-78
2022/04/05 11:48:53;;;;;;;17.37;12.00;;;11.50;99.90;;;;;;2609323;54;21288;-75
2022/04/05 11:51:22;;;;;;;16.20;14.50;;;11.60;99.90;;;;;;2612423;54;20375;-75
2022/04/05 11:53:48;;;;;;;14.23;12.10;;;11.80;99.90;;;;;;2611156;54;20424;-76
2022/04/05 11:56:23;;;;;;;15.63;12.43;;;11.70;99.90;;;;;;2611269;39;20814;-75
2022/04/05 11:58:54;;;;;;;13.60;12.13;;;11.70;99.90;;;;;;2610200;54;22425;-75
2022/04/05 12:01:26;;;;;;;16.53;12.30;;;11.70;99.90;;;;;;2610191;54;20406;-73
2022/04/05 12:03:58;;;;;;;16.67;11.60;;;11.70;99.90;;;;;;2611736;54;20402;-75
2022/04/05 12:06:32;;;;;;;14.27;11.53;;;11.60;99.90;;;;;;2612686;54;20409;-75
2022/04/05 12:09:04;;;;;;;18.43;12.27;;;11.60;99.90;;;;;;2610478;54;20423;-75
2022/04/05 12:11:32;;;;;;;16.30;12.63;;;11.60;99.90;;;;;;2610685;54;20415;-74
2022/04/05 12:14:04;;;;;;;12.87;11.00;;;11.50;99.90;;;;;;2608319;47;20434;-74
2022/04/05 12:16:45;;;;;;;13.83;11.40;;;11.50;99.90;;;;;;2608643;54;20942;-74
2022/04/05 12:19:11;;;;;;;14.70;12.70;;;11.60;99.90;;;;;;2609655;47;20419;-74
2022/04/05 12:21:37;;;;;;;18.17;14.30;;;11.80;99.90;;;;;;2607471;47;20427;-74
2022/04/05 12:24:03;;;;;;;15.37;13.77;;;11.90;99.90;;;;;;2610943;54;20183;-74
2022/04/05 12:26:32;;;;;;;14.97;13.37;;;11.90;99.90;;;;;;2609537;54;20422;-74
2022/04/05 12:28:59;;;;;;;14.53;12.93;;;11.80;99.90;;;;;;2604189;47;20424;-74
2022/04/05 12:31:32;;;;;;;17.50;15.17;;;11.90;99.90;;;;;;2600967;54;20527;-74
2022/04/05 12:34:02;;;;;;;21.40;17.73;;;12.00;99.90;;;;;;2601248;54;20406;-74
2022/04/05 12:36:55;;;;;;;20.87;17.90;;;12.10;99.90;;;;;;2603139;54;21098;-73
2022/04/05 12:39:24;;;;;;;20.30;15.60;;;12.40;99.90;;;;;;2602253;54;20439;-73
2022/04/05 12:41:53;;;;;;;22.30;18.27;;;12.50;99.90;;;;;;2604853;54;20435;-73
2022/04/05 12:44:21;;;;;;;18.10;16.20;;;12.40;99.90;;;;;;2611145;39;20780;-73
2022/04/05 12:46:57;;;;;;;18.50;15.47;;;12.50;99.90;;;;;;2606067;54;20543;-72